sensor_id;sensor_type;location;lat;lon;timestamp;P1;durP1;ratioP1;P2;durP2;ratioP2
4808;SDS011;2418;49.930;8.606;2023-08-20T00:00:57;8.00;;;6.87;;
4808;SDS011;2418;49.930;8.606;2023-08-20T00:03:24;8.23;;;6.78;;
4808;SDS011;2418;49.930;8.606;2023-08-20T00:05:51;11.55;;;7.97;;
4808;SDS011;2418;49.930;8.606;2023-08-20T00:08:17;7.30;;;6.70;;
4808;SDS011;2418;49.930;8.606;2023-08-20T00:10:43;10.98;;;6.63;;
4808;SDS011;2418;49.930;8.606;2023-08-20T00:13:09;8.20;;;7.50;;
4808;SDS011;2418;49.930;8.606;2023-08-20T00:15:35;7.25;;;6.65;;
4808;SDS011;2418;49.930;8.606;2023-08-20T00:18:01;6.95;;;6.55;;
4808;SDS011;2418;49.930;8.606;2023-08-20T00:20:27;7.15;;;6.55;;
4808;SDS011;2418;49.930;8.606;2023-08-20T00:22:54;8.25;;;6.80;;
4808;SDS011;2418;49.930;8.606;2023-08-20T00:25:20;7.17;;;6.50;;
4808;SDS011;2418;49.930;8.606;2023-08-20T00:27:46;6.90;;;6.20;;
4808;SDS011;2418;49.930;8.606;2023-08-20T00:30:14;7.85;;;6.90;;
4808;SDS011;2418;49.930;8.606;2023-08-20T00:32:39;9.50;;;6.72;;
4808;SDS011;2418;49.930;8.606;2023-08-20T00:35:06;7.82;;;7.13;;
4808;SDS011;2418;49.930;8.606;2023-08-20T00:37:34;7.50;;;6.85;;
4808;SDS011;2418;49.930;8.606;2023-08-20T00:40:01;7.95;;;6.80;;
4808;SDS011;2418;49.930;8.606;2023-08-20T00:42:29;10.93;;;8.18;;
4808;SDS011;2418;49.930;8.606;2023-08-20T00:44:56;10.00;;;6.85;;
4808;SDS011;2418;49.930;8.606;2023-08-20T00:47:22;8.00;;;7.10;;
4808;SDS011;2418;49.930;8.606;2023-08-20T00:49:48;8.55;;;7.78;;
4808;SDS011;2418;49.930;8.606;2023-08-20T00:52:15;8.10;;;7.10;;
4808;SDS011;2418;49.930;8.606;2023-08-20T00:54:44;9.65;;;7.03;;
4808;SDS011;2418;49.930;8.606;2023-08-20T00:57:13;12.55;;;6.97;;
4808;SDS011;2418;49.930;8.606;2023-08-20T00:59:40;8.20;;;6.82;;
4808;SDS011;2418;49.930;8.606;2023-08-20T01:02:07;10.02;;;7.60;;
4808;SDS011;2418;49.930;8.606;2023-08-20T01:04:33;8.00;;;6.95;;
4808;SDS011;2418;49.930;8.606;2023-08-20T01:07:04;7.95;;;7.30;;
4808;SDS011;2418;49.930;8.606;2023-08-20T01:12:18;11.00;;;7.20;;
4808;SDS011;2418;49.930;8.606;2023-08-20T01:14:45;9.93;;;7.40;;
4808;SDS011;2418;49.930;8.606;2023-08-20T01:17:11;11.63;;;7.90;;
4808;SDS011;2418;49.930;8.606;2023-08-20T01:19:36;9.13;;;7.22;;
4808;SDS011;2418;49.930;8.606;2023-08-20T01:22:26;10.47;;;7.70;;
4808;SDS011;2418;49.930;8.606;2023-08-20T01:28:04;9.05;;;7.80;;
4808;SDS011;2418;49.930;8.606;2023-08-20T01:30:33;13.23;;;8.23;;
4808;SDS011;2418;49.930;8.606;2023-08-20T01:33:00;8.90;;;7.68;;
4808;SDS011;2418;49.930;8.606;2023-08-20T01:35:26;10.18;;;8.20;;
4808;SDS011;2418;49.930;8.606;2023-08-20T01:37:52;11.38;;;8.95;;
4808;SDS011;2418;49.930;8.606;2023-08-20T01:40:18;11.35;;;7.97;;
4808;SDS011;2418;49.930;8.606;2023-08-20T01:42:44;11.57;;;7.93;;
4808;SDS011;2418;49.930;8.606;2023-08-20T01:45:11;10.73;;;8.03;;
4808;SDS011;2418;49.930;8.606;2023-08-20T01:47:38;13.82;;;8.20;;
4808;SDS011;2418;49.930;8.606;2023-08-20T01:50:04;10.05;;;8.55;;
4808;SDS011;2418;49.930;8.606;2023-08-20T01:52:30;8.67;;;7.87;;
4808;SDS011;2418;49.930;8.606;2023-08-20T01:54:57;9.50;;;8.43;;
4808;SDS011;2418;49.930;8.606;2023-08-20T01:57:24;9.17;;;8.27;;
4808;SDS011;2418;49.930;8.606;2023-08-20T01:59:50;9.35;;;8.10;;
4808;SDS011;2418;49.930;8.606;2023-08-20T02:02:16;9.73;;;8.50;;
4808;SDS011;2418;49.930;8.606;2023-08-20T02:04:42;9.95;;;8.05;;
4808;SDS011;2418;49.930;8.606;2023-08-20T02:07:08;12.18;;;7.68;;
4808;SDS011;2418;49.930;8.606;2023-08-20T02:09:34;8.50;;;7.80;;
4808;SDS011;2418;49.930;8.606;2023-08-20T02:12:01;8.85;;;7.78;;
4808;SDS011;2418;49.930;8.606;2023-08-20T02:14:27;9.07;;;8.20;;
4808;SDS011;2418;49.930;8.606;2023-08-20T02:16:53;9.90;;;8.90;;
4808;SDS011;2418;49.930;8.606;2023-08-20T02:19:19;11.23;;;8.77;;
4808;SDS011;2418;49.930;8.606;2023-08-20T02:21:46;11.02;;;9.43;;
4808;SDS011;2418;49.930;8.606;2023-08-20T02:24:12;9.90;;;9.00;;
4808;SDS011;2418;49.930;8.606;2023-08-20T02:26:38;10.10;;;9.00;;
4808;SDS011;2418;49.930;8.606;2023-08-20T02:29:04;15.80;;;9.15;;
4808;SDS011;2418;49.930;8.606;2023-08-20T02:31:30;12.55;;;9.48;;
4808;SDS011;2418;49.930;8.606;2023-08-20T02:33:56;12.95;;;9.38;;
4808;SDS011;2418;49.930;8.606;2023-08-20T02:36:22;17.23;;;9.93;;
4808;SDS011;2418;49.930;8.606;2023-08-20T02:38:49;14.00;;;9.73;;
4808;SDS011;2418;49.930;8.606;2023-08-20T02:41:15;13.75;;;10.10;;
4808;SDS011;2418;49.930;8.606;2023-08-20T02:43:41;13.47;;;9.20;;
4808;SDS011;2418;49.930;8.606;2023-08-20T02:46:07;13.13;;;9.07;;
4808;SDS011;2418;49.930;8.606;2023-08-20T02:48:33;14.00;;;10.25;;
4808;SDS011;2418;49.930;8.606;2023-08-20T02:51:00;15.57;;;9.90;;
4808;SDS011;2418;49.930;8.606;2023-08-20T02:53:26;11.32;;;9.50;;
4808;SDS011;2418;49.930;8.606;2023-08-20T02:55:52;10.18;;;9.15;;
4808;SDS011;2418;49.930;8.606;2023-08-20T02:58:18;12.10;;;9.90;;
4808;SDS011;2418;49.930;8.606;2023-08-20T03:00:44;10.23;;;9.02;;
4808;SDS011;2418;49.930;8.606;2023-08-20T03:03:11;10.30;;;8.80;;
4808;SDS011;2418;49.930;8.606;2023-08-20T03:05:38;16.10;;;10.60;;
4808;SDS011;2418;49.930;8.606;2023-08-20T03:08:04;13.98;;;9.68;;
4808;SDS011;2418;49.930;8.606;2023-08-20T03:10:31;22.55;;;10.07;;
4808;SDS011;2418;49.930;8.606;2023-08-20T03:13:00;12.80;;;10.40;;
4808;SDS011;2418;49.930;8.606;2023-08-20T03:15:30;16.30;;;10.02;;
4808;SDS011;2418;49.930;8.606;2023-08-20T03:17:56;11.05;;;9.90;;
4808;SDS011;2418;49.930;8.606;2023-08-20T03:20:22;11.45;;;9.65;;
4808;SDS011;2418;49.930;8.606;2023-08-20T03:22:47;13.98;;;10.40;;
4808;SDS011;2418;49.930;8.606;2023-08-20T03:25:13;14.02;;;10.30;;
4808;SDS011;2418;49.930;8.606;2023-08-20T03:27:39;11.68;;;9.70;;
4808;SDS011;2418;49.930;8.606;2023-08-20T03:30:05;17.75;;;9.70;;
4808;SDS011;2418;49.930;8.606;2023-08-20T03:32:32;11.10;;;9.93;;
4808;SDS011;2418;49.930;8.606;2023-08-20T03:34:58;13.85;;;9.70;;
4808;SDS011;2418;49.930;8.606;2023-08-20T03:37:27;13.07;;;10.20;;
4808;SDS011;2418;49.930;8.606;2023-08-20T03:39:54;15.15;;;10.50;;
4808;SDS011;2418;49.930;8.606;2023-08-20T03:42:20;11.03;;;9.83;;
4808;SDS011;2418;49.930;8.606;2023-08-20T03:44:46;15.25;;;11.18;;
4808;SDS011;2418;49.930;8.606;2023-08-20T03:47:12;12.98;;;10.80;;
4808;SDS011;2418;49.930;8.606;2023-08-20T03:49:38;16.88;;;9.68;;
4808;SDS011;2418;49.930;8.606;2023-08-20T03:52:04;11.40;;;10.20;;
4808;SDS011;2418;49.930;8.606;2023-08-20T03:54:32;17.92;;;10.60;;
4808;SDS011;2418;49.930;8.606;2023-08-20T03:56:58;13.85;;;9.18;;
4808;SDS011;2418;49.930;8.606;2023-08-20T03:59:24;12.43;;;10.27;;
4808;SDS011;2418;49.930;8.606;2023-08-20T04:01:49;10.90;;;9.90;;
4808;SDS011;2418;49.930;8.606;2023-08-20T04:04:16;14.00;;;10.40;;
4808;SDS011;2418;49.930;8.606;2023-08-20T04:06:42;15.68;;;10.68;;
4808;SDS011;2418;49.930;8.606;2023-08-20T04:09:08;13.60;;;10.00;;
4808;SDS011;2418;49.930;8.606;2023-08-20T04:11:35;13.60;;;10.60;;
4808;SDS011;2418;49.930;8.606;2023-08-20T04:14:02;14.98;;;11.05;;
4808;SDS011;2418;49.930;8.606;2023-08-20T04:16:29;15.50;;;10.75;;
4808;SDS011;2418;49.930;8.606;2023-08-20T04:18:55;12.90;;;10.00;;
4808;SDS011;2418;49.930;8.606;2023-08-20T04:21:21;16.20;;;10.70;;
4808;SDS011;2418;49.930;8.606;2023-08-20T04:23:47;15.05;;;10.07;;
4808;SDS011;2418;49.930;8.606;2023-08-20T04:26:13;12.60;;;10.07;;
4808;SDS011;2418;49.930;8.606;2023-08-20T04:28:40;13.27;;;9.98;;
4808;SDS011;2418;49.930;8.606;2023-08-20T04:31:06;10.93;;;9.93;;
4808;SDS011;2418;49.930;8.606;2023-08-20T04:33:32;17.95;;;11.00;;
4808;SDS011;2418;49.930;8.606;2023-08-20T04:35:58;11.95;;;10.40;;
4808;SDS011;2418;49.930;8.606;2023-08-20T04:38:24;13.50;;;10.33;;
4808;SDS011;2418;49.930;8.606;2023-08-20T04:40:50;13.07;;;10.40;;
4808;SDS011;2418;49.930;8.606;2023-08-20T04:43:16;19.58;;;10.70;;
4808;SDS011;2418;49.930;8.606;2023-08-20T04:45:42;15.02;;;9.25;;
4808;SDS011;2418;49.930;8.606;2023-08-20T04:48:08;11.80;;;9.53;;
4808;SDS011;2418;49.930;8.606;2023-08-20T04:50:34;13.15;;;10.00;;
4808;SDS011;2418;49.930;8.606;2023-08-20T04:53:00;10.60;;;8.77;;
4808;SDS011;2418;49.930;8.606;2023-08-20T04:55:29;12.35;;;9.68;;
4808;SDS011;2418;49.930;8.606;2023-08-20T04:57:56;11.93;;;9.30;;
4808;SDS011;2418;49.930;8.606;2023-08-20T05:00:22;15.27;;;9.40;;
4808;SDS011;2418;49.930;8.606;2023-08-20T05:02:49;13.13;;;9.52;;
4808;SDS011;2418;49.930;8.606;2023-08-20T05:05:15;12.70;;;9.07;;
4808;SDS011;2418;49.930;8.606;2023-08-20T05:07:41;15.20;;;8.70;;
4808;SDS011;2418;49.930;8.606;2023-08-20T05:10:07;16.80;;;8.95;;
4808;SDS011;2418;49.930;8.606;2023-08-20T05:12:33;10.57;;;8.90;;
4808;SDS011;2418;49.930;8.606;2023-08-20T05:14:59;10.48;;;8.43;;
4808;SDS011;2418;49.930;8.606;2023-08-20T05:17:25;11.35;;;8.60;;
4808;SDS011;2418;49.930;8.606;2023-08-20T05:19:51;31.52;;;9.23;;
4808;SDS011;2418;49.930;8.606;2023-08-20T05:22:17;9.02;;;8.23;;
4808;SDS011;2418;49.930;8.606;2023-08-20T05:24:44;10.30;;;8.68;;
4808;SDS011;2418;49.930;8.606;2023-08-20T05:27:14;11.55;;;8.55;;
4808;SDS011;2418;49.930;8.606;2023-08-20T05:29:42;9.70;;;8.30;;
4808;SDS011;2418;49.930;8.606;2023-08-20T05:32:08;11.18;;;9.05;;
4808;SDS011;2418;49.930;8.606;2023-08-20T05:34:34;13.55;;;8.82;;
4808;SDS011;2418;49.930;8.606;2023-08-20T05:37:00;13.60;;;8.18;;
4808;SDS011;2418;49.930;8.606;2023-08-20T05:39:26;8.82;;;8.13;;
4808;SDS011;2418;49.930;8.606;2023-08-20T05:41:53;8.57;;;7.40;;
4808;SDS011;2418;49.930;8.606;2023-08-20T05:44:19;8.23;;;7.53;;
4808;SDS011;2418;49.930;8.606;2023-08-20T05:46:45;9.25;;;6.90;;
4808;SDS011;2418;49.930;8.606;2023-08-20T05:49:13;9.15;;;8.25;;
4808;SDS011;2418;49.930;8.606;2023-08-20T05:51:41;8.60;;;7.90;;
4808;SDS011;2418;49.930;8.606;2023-08-20T05:54:06;8.85;;;7.25;;
4808;SDS011;2418;49.930;8.606;2023-08-20T05:56:32;8.07;;;7.47;;
4808;SDS011;2418;49.930;8.606;2023-08-20T05:58:58;11.45;;;7.80;;
4808;SDS011;2418;49.930;8.606;2023-08-20T06:01:24;7.38;;;6.97;;
4808;SDS011;2418;49.930;8.606;2023-08-20T06:03:50;7.50;;;6.80;;
4808;SDS011;2418;49.930;8.606;2023-08-20T06:06:16;9.00;;;8.10;;
4808;SDS011;2418;49.930;8.606;2023-08-20T06:08:42;8.32;;;7.40;;
4808;SDS011;2418;49.930;8.606;2023-08-20T06:11:09;10.10;;;7.82;;
4808;SDS011;2418;49.930;8.606;2023-08-20T06:13:35;11.15;;;8.00;;
4808;SDS011;2418;49.930;8.606;2023-08-20T06:16:01;9.00;;;8.27;;
4808;SDS011;2418;49.930;8.606;2023-08-20T06:18:27;9.02;;;8.10;;
4808;SDS011;2418;49.930;8.606;2023-08-20T06:20:53;8.80;;;8.00;;
4808;SDS011;2418;49.930;8.606;2023-08-20T06:23:19;9.80;;;8.90;;
4808;SDS011;2418;49.930;8.606;2023-08-20T06:25:45;10.20;;;9.20;;
4808;SDS011;2418;49.930;8.606;2023-08-20T06:28:11;8.27;;;7.47;;
4808;SDS011;2418;49.930;8.606;2023-08-20T06:30:37;13.18;;;7.75;;
4808;SDS011;2418;49.930;8.606;2023-08-20T06:33:03;8.50;;;7.65;;
4808;SDS011;2418;49.930;8.606;2023-08-20T06:35:30;8.82;;;8.02;;
4808;SDS011;2418;49.930;8.606;2023-08-20T06:37:56;11.75;;;8.07;;
4808;SDS011;2418;49.930;8.606;2023-08-20T06:40:22;11.80;;;7.70;;
4808;SDS011;2418;49.930;8.606;2023-08-20T06:42:48;10.50;;;8.32;;
4808;SDS011;2418;49.930;8.606;2023-08-20T06:45:14;7.72;;;6.97;;
4808;SDS011;2418;49.930;8.606;2023-08-20T06:47:41;8.48;;;7.53;;
4808;SDS011;2418;49.930;8.606;2023-08-20T06:50:07;9.00;;;8.10;;
4808;SDS011;2418;49.930;8.606;2023-08-20T06:52:33;9.20;;;8.30;;
4808;SDS011;2418;49.930;8.606;2023-08-20T06:54:59;9.50;;;8.60;;
4808;SDS011;2418;49.930;8.606;2023-08-20T06:57:25;8.40;;;7.90;;
4808;SDS011;2418;49.930;8.606;2023-08-20T06:59:51;9.20;;;8.50;;
4808;SDS011;2418;49.930;8.606;2023-08-20T07:02:17;8.50;;;7.80;;
4808;SDS011;2418;49.930;8.606;2023-08-20T07:04:43;8.57;;;7.78;;
4808;SDS011;2418;49.930;8.606;2023-08-20T07:07:09;8.13;;;7.55;;
4808;SDS011;2418;49.930;8.606;2023-08-20T07:09:36;9.90;;;7.60;;
4808;SDS011;2418;49.930;8.606;2023-08-20T07:12:03;8.93;;;8.02;;
4808;SDS011;2418;49.930;8.606;2023-08-20T07:14:29;8.30;;;7.60;;
4808;SDS011;2418;49.930;8.606;2023-08-20T07:16:55;8.50;;;7.80;;
4808;SDS011;2418;49.930;8.606;2023-08-20T07:19:21;11.55;;;7.15;;
4808;SDS011;2418;49.930;8.606;2023-08-20T07:21:47;9.55;;;7.47;;
4808;SDS011;2418;49.930;8.606;2023-08-20T07:24:13;8.80;;;8.10;;
4808;SDS011;2418;49.930;8.606;2023-08-20T07:26:39;12.98;;;7.60;;
4808;SDS011;2418;49.930;8.606;2023-08-20T07:29:05;7.75;;;7.07;;
4808;SDS011;2418;49.930;8.606;2023-08-20T07:31:32;8.40;;;7.60;;
4808;SDS011;2418;49.930;8.606;2023-08-20T07:33:59;8.75;;;7.95;;
4808;SDS011;2418;49.930;8.606;2023-08-20T07:36:25;8.65;;;7.85;;
4808;SDS011;2418;49.930;8.606;2023-08-20T07:38:54;7.73;;;7.23;;
4808;SDS011;2418;49.930;8.606;2023-08-20T07:41:20;8.50;;;7.70;;
4808;SDS011;2418;49.930;8.606;2023-08-20T07:43:47;7.35;;;6.75;;
4808;SDS011;2418;49.930;8.606;2023-08-20T07:46:14;10.48;;;7.30;;
4808;SDS011;2418;49.930;8.606;2023-08-20T07:48:40;9.95;;;8.27;;
4808;SDS011;2418;49.930;8.606;2023-08-20T07:51:06;14.17;;;7.83;;
4808;SDS011;2418;49.930;8.606;2023-08-20T07:53:33;8.10;;;7.40;;
4808;SDS011;2418;49.930;8.606;2023-08-20T07:56:00;7.78;;;7.05;;
4808;SDS011;2418;49.930;8.606;2023-08-20T07:58:26;7.28;;;6.88;;
4808;SDS011;2418;49.930;8.606;2023-08-20T08:00:53;8.68;;;7.88;;
4808;SDS011;2418;49.930;8.606;2023-08-20T08:03:19;7.80;;;7.10;;
4808;SDS011;2418;49.930;8.606;2023-08-20T08:05:46;7.65;;;7.05;;
4808;SDS011;2418;49.930;8.606;2023-08-20T08:08:13;7.88;;;7.18;;
4808;SDS011;2418;49.930;8.606;2023-08-20T08:10:38;10.43;;;7.35;;
4808;SDS011;2418;49.930;8.606;2023-08-20T08:13:05;10.52;;;7.72;;
4808;SDS011;2418;49.930;8.606;2023-08-20T08:15:31;9.80;;;7.90;;
4808;SDS011;2418;49.930;8.606;2023-08-20T08:17:57;7.47;;;7.07;;
4808;SDS011;2418;49.930;8.606;2023-08-20T08:20:23;8.48;;;7.63;;
4808;SDS011;2418;49.930;8.606;2023-08-20T08:22:48;8.00;;;7.20;;
4808;SDS011;2418;49.930;8.606;2023-08-20T08:25:14;7.50;;;6.90;;
4808;SDS011;2418;49.930;8.606;2023-08-20T08:27:40;7.60;;;7.10;;
4808;SDS011;2418;49.930;8.606;2023-08-20T08:30:08;7.30;;;6.90;;
4808;SDS011;2418;49.930;8.606;2023-08-20T08:32:34;8.10;;;7.50;;
4808;SDS011;2418;49.930;8.606;2023-08-20T08:35:00;8.00;;;7.20;;
4808;SDS011;2418;49.930;8.606;2023-08-20T08:37:26;7.13;;;6.50;;
4808;SDS011;2418;49.930;8.606;2023-08-20T08:39:53;7.30;;;6.68;;
4808;SDS011;2418;49.930;8.606;2023-08-20T08:42:19;8.88;;;6.57;;
4808;SDS011;2418;49.930;8.606;2023-08-20T08:44:48;8.15;;;6.15;;
4808;SDS011;2418;49.930;8.606;2023-08-20T08:47:15;7.53;;;6.70;;
4808;SDS011;2418;49.930;8.606;2023-08-20T08:49:41;7.20;;;6.50;;
4808;SDS011;2418;49.930;8.606;2023-08-20T08:52:09;8.20;;;6.18;;
4808;SDS011;2418;49.930;8.606;2023-08-20T08:54:36;7.18;;;6.78;;
4808;SDS011;2418;49.930;8.606;2023-08-20T08:57:02;6.97;;;6.37;;
4808;SDS011;2418;49.930;8.606;2023-08-20T08:59:28;10.65;;;7.25;;
4808;SDS011;2418;49.930;8.606;2023-08-20T09:01:54;7.10;;;6.50;;
4808;SDS011;2418;49.930;8.606;2023-08-20T09:04:21;7.50;;;6.90;;
4808;SDS011;2418;49.930;8.606;2023-08-20T09:06:51;7.57;;;6.27;;
4808;SDS011;2418;49.930;8.606;2023-08-20T09:09:18;7.03;;;6.43;;
4808;SDS011;2418;49.930;8.606;2023-08-20T09:11:45;7.38;;;6.85;;
4808;SDS011;2418;49.930;8.606;2023-08-20T09:14:28;7.70;;;6.97;;
4808;SDS011;2418;49.930;8.606;2023-08-20T09:16:58;7.33;;;6.63;;
4808;SDS011;2418;49.930;8.606;2023-08-20T09:19:24;6.45;;;6.05;;
4808;SDS011;2418;49.930;8.606;2023-08-20T09:21:53;6.22;;;5.95;;
4808;SDS011;2418;49.930;8.606;2023-08-20T09:24:40;7.18;;;6.68;;
4808;SDS011;2418;49.930;8.606;2023-08-20T09:27:09;7.43;;;6.72;;
4808;SDS011;2418;49.930;8.606;2023-08-20T09:29:55;6.82;;;6.22;;
4808;SDS011;2418;49.930;8.606;2023-08-20T09:32:31;7.97;;;7.17;;
4808;SDS011;2418;49.930;8.606;2023-08-20T09:34:57;7.20;;;6.50;;
4808;SDS011;2418;49.930;8.606;2023-08-20T09:37:24;6.28;;;5.85;;
4808;SDS011;2418;49.930;8.606;2023-08-20T09:39:50;7.30;;;6.32;;
4808;SDS011;2418;49.930;8.606;2023-08-20T09:42:17;6.78;;;6.28;;
4808;SDS011;2418;49.930;8.606;2023-08-20T09:44:44;7.60;;;6.80;;
4808;SDS011;2418;49.930;8.606;2023-08-20T09:47:17;6.07;;;5.78;;
4808;SDS011;2418;49.930;8.606;2023-08-20T09:49:44;6.68;;;6.07;;
4808;SDS011;2418;49.930;8.606;2023-08-20T09:52:11;7.40;;;6.80;;
4808;SDS011;2418;49.930;8.606;2023-08-20T10:00:00;7.30;;;6.72;;
4808;SDS011;2418;49.930;8.606;2023-08-20T10:02:27;6.70;;;6.20;;
4808;SDS011;2418;49.930;8.606;2023-08-20T10:04:53;5.88;;;5.40;;
4808;SDS011;2418;49.930;8.606;2023-08-20T10:07:20;6.40;;;6.10;;
4808;SDS011;2418;49.930;8.606;2023-08-20T10:09:50;6.53;;;6.03;;
4808;SDS011;2418;49.930;8.606;2023-08-20T10:12:18;5.75;;;5.45;;
4808;SDS011;2418;49.930;8.606;2023-08-20T10:14:45;6.65;;;6.28;;
4808;SDS011;2418;49.930;8.606;2023-08-20T10:17:11;6.03;;;5.55;;
4808;SDS011;2418;49.930;8.606;2023-08-20T10:19:37;6.23;;;5.73;;
4808;SDS011;2418;49.930;8.606;2023-08-20T10:22:04;5.10;;;4.90;;
4808;SDS011;2418;49.930;8.606;2023-08-20T10:24:39;5.70;;;5.30;;
4808;SDS011;2418;49.930;8.606;2023-08-20T10:27:12;5.53;;;5.22;;
4808;SDS011;2418;49.930;8.606;2023-08-20T10:29:38;5.00;;;4.70;;
4808;SDS011;2418;49.930;8.606;2023-08-20T10:32:06;4.70;;;4.50;;
4808;SDS011;2418;49.930;8.606;2023-08-20T10:34:35;4.70;;;4.40;;
4808;SDS011;2418;49.930;8.606;2023-08-20T10:37:03;7.10;;;5.10;;
4808;SDS011;2418;49.930;8.606;2023-08-20T10:39:34;5.57;;;5.30;;
4808;SDS011;2418;49.930;8.606;2023-08-20T10:42:09;5.80;;;5.40;;
4808;SDS011;2418;49.930;8.606;2023-08-20T10:47:21;4.57;;;4.28;;
4808;SDS011;2418;49.930;8.606;2023-08-20T10:49:52;5.40;;;4.85;;
4808;SDS011;2418;49.930;8.606;2023-08-20T10:52:19;5.40;;;5.20;;
4808;SDS011;2418;49.930;8.606;2023-08-20T10:54:45;4.35;;;4.10;;
4808;SDS011;2418;49.930;8.606;2023-08-20T10:57:11;5.00;;;4.70;;
4808;SDS011;2418;49.930;8.606;2023-08-20T10:59:39;4.45;;;4.15;;
4808;SDS011;2418;49.930;8.606;2023-08-20T11:02:06;5.03;;;4.68;;
4808;SDS011;2418;49.930;8.606;2023-08-20T11:04:33;4.20;;;4.00;;
4808;SDS011;2418;49.930;8.606;2023-08-20T11:07:00;4.00;;;3.70;;
4808;SDS011;2418;49.930;8.606;2023-08-20T11:09:27;3.60;;;3.50;;
4808;SDS011;2418;49.930;8.606;2023-08-20T11:11:54;4.65;;;4.45;;
4808;SDS011;2418;49.930;8.606;2023-08-20T11:14:20;4.50;;;4.20;;
4808;SDS011;2418;49.930;8.606;2023-08-20T11:16:47;5.15;;;4.85;;
4808;SDS011;2418;49.930;8.606;2023-08-20T11:19:15;4.30;;;4.00;;
4808;SDS011;2418;49.930;8.606;2023-08-20T11:21:44;5.10;;;4.18;;
4808;SDS011;2418;49.930;8.606;2023-08-20T11:24:11;4.97;;;4.78;;
4808;SDS011;2418;49.930;8.606;2023-08-20T11:26:41;4.95;;;4.63;;
4808;SDS011;2418;49.930;8.606;2023-08-20T11:29:07;4.75;;;4.20;;
4808;SDS011;2418;49.930;8.606;2023-08-20T11:31:34;4.40;;;4.25;;
4808;SDS011;2418;49.930;8.606;2023-08-20T11:34:02;5.10;;;4.55;;
4808;SDS011;2418;49.930;8.606;2023-08-20T11:36:29;4.10;;;4.00;;
4808;SDS011;2418;49.930;8.606;2023-08-20T11:38:55;4.30;;;3.95;;
4808;SDS011;2418;49.930;8.606;2023-08-20T11:41:21;5.10;;;4.30;;
4808;SDS011;2418;49.930;8.606;2023-08-20T11:43:48;4.90;;;4.50;;
4808;SDS011;2418;49.930;8.606;2023-08-20T11:46:15;4.10;;;3.90;;
4808;SDS011;2418;49.930;8.606;2023-08-20T11:51:27;3.70;;;3.60;;
4808;SDS011;2418;49.930;8.606;2023-08-20T11:53:53;4.15;;;3.95;;
4808;SDS011;2418;49.930;8.606;2023-08-20T11:56:19;4.80;;;4.60;;
4808;SDS011;2418;49.930;8.606;2023-08-20T11:58:50;6.35;;;4.03;;
4808;SDS011;2418;49.930;8.606;2023-08-20T12:01:17;4.30;;;4.00;;
4808;SDS011;2418;49.930;8.606;2023-08-20T12:03:43;4.20;;;4.00;;
4808;SDS011;2418;49.930;8.606;2023-08-20T12:06:19;3.90;;;3.80;;
4808;SDS011;2418;49.930;8.606;2023-08-20T12:08:45;3.85;;;3.65;;
4808;SDS011;2418;49.930;8.606;2023-08-20T12:11:12;4.15;;;4.00;;
4808;SDS011;2418;49.930;8.606;2023-08-20T12:13:38;3.42;;;3.33;;
4808;SDS011;2418;49.930;8.606;2023-08-20T12:16:04;4.05;;;3.85;;
4808;SDS011;2418;49.930;8.606;2023-08-20T12:18:30;3.80;;;3.60;;
4808;SDS011;2418;49.930;8.606;2023-08-20T12:20:58;3.50;;;3.40;;
4808;SDS011;2418;49.930;8.606;2023-08-20T12:23:24;4.27;;;4.17;;
4808;SDS011;2418;49.930;8.606;2023-08-20T12:25:50;4.83;;;4.43;;
4808;SDS011;2418;49.930;8.606;2023-08-20T12:28:16;4.03;;;3.88;;
4808;SDS011;2418;49.930;8.606;2023-08-20T12:30:43;4.23;;;4.10;;
4808;SDS011;2418;49.930;8.606;2023-08-20T12:33:09;4.50;;;4.15;;
4808;SDS011;2418;49.930;8.606;2023-08-20T12:35:36;3.97;;;3.77;;
4808;SDS011;2418;49.930;8.606;2023-08-20T12:38:02;4.63;;;4.25;;
4808;SDS011;2418;49.930;8.606;2023-08-20T12:40:29;4.05;;;3.95;;
4808;SDS011;2418;49.930;8.606;2023-08-20T12:42:55;4.30;;;3.90;;
4808;SDS011;2418;49.930;8.606;2023-08-20T12:45:21;4.97;;;4.40;;
4808;SDS011;2418;49.930;8.606;2023-08-20T12:47:47;3.90;;;3.77;;
4808;SDS011;2418;49.930;8.606;2023-08-20T12:50:13;4.72;;;4.45;;
4808;SDS011;2418;49.930;8.606;2023-08-20T12:52:40;4.45;;;4.25;;
4808;SDS011;2418;49.930;8.606;2023-08-20T12:55:06;4.50;;;4.30;;
4808;SDS011;2418;49.930;8.606;2023-08-20T12:57:33;4.25;;;4.05;;
4808;SDS011;2418;49.930;8.606;2023-08-20T13:00:00;4.50;;;4.20;;
4808;SDS011;2418;49.930;8.606;2023-08-20T13:02:26;4.38;;;4.18;;
4808;SDS011;2418;49.930;8.606;2023-08-20T13:04:52;3.80;;;3.70;;
4808;SDS011;2418;49.930;8.606;2023-08-20T13:07:18;4.20;;;3.80;;
4808;SDS011;2418;49.930;8.606;2023-08-20T13:09:44;3.17;;;3.08;;
4808;SDS011;2418;49.930;8.606;2023-08-20T13:12:10;3.42;;;3.22;;
4808;SDS011;2418;49.930;8.606;2023-08-20T13:14:38;2.70;;;2.60;;
4808;SDS011;2418;49.930;8.606;2023-08-20T13:17:05;4.70;;;2.97;;
4808;SDS011;2418;49.930;8.606;2023-08-20T13:19:31;2.97;;;2.78;;
4808;SDS011;2418;49.930;8.606;2023-08-20T13:21:59;3.15;;;2.95;;
4808;SDS011;2418;49.930;8.606;2023-08-20T13:24:25;3.17;;;2.90;;
4808;SDS011;2418;49.930;8.606;2023-08-20T13:26:51;2.80;;;2.70;;
4808;SDS011;2418;49.930;8.606;2023-08-20T13:29:17;3.47;;;3.38;;
4808;SDS011;2418;49.930;8.606;2023-08-20T13:31:43;3.27;;;2.97;;
4808;SDS011;2418;49.930;8.606;2023-08-20T13:34:10;3.65;;;3.35;;
4808;SDS011;2418;49.930;8.606;2023-08-20T13:36:36;3.78;;;3.45;;
4808;SDS011;2418;49.930;8.606;2023-08-20T13:39:02;4.10;;;3.90;;
4808;SDS011;2418;49.930;8.606;2023-08-20T13:41:28;3.47;;;3.33;;
4808;SDS011;2418;49.930;8.606;2023-08-20T13:43:54;3.90;;;3.60;;
4808;SDS011;2418;49.930;8.606;2023-08-20T13:46:20;4.30;;;4.00;;
4808;SDS011;2418;49.930;8.606;2023-08-20T13:48:46;4.50;;;3.50;;
4808;SDS011;2418;49.930;8.606;2023-08-20T13:51:12;4.50;;;3.83;;
4808;SDS011;2418;49.930;8.606;2023-08-20T13:53:38;4.10;;;3.80;;
4808;SDS011;2418;49.930;8.606;2023-08-20T13:56:04;4.00;;;3.80;;
4808;SDS011;2418;49.930;8.606;2023-08-20T13:58:30;4.20;;;3.80;;
4808;SDS011;2418;49.930;8.606;2023-08-20T14:00:56;4.15;;;3.90;;
4808;SDS011;2418;49.930;8.606;2023-08-20T14:03:22;4.10;;;3.80;;
4808;SDS011;2418;49.930;8.606;2023-08-20T14:05:48;4.10;;;3.90;;
4808;SDS011;2418;49.930;8.606;2023-08-20T14:08:14;5.30;;;3.60;;
4808;SDS011;2418;49.930;8.606;2023-08-20T14:10:40;4.28;;;4.07;;
4808;SDS011;2418;49.930;8.606;2023-08-20T14:13:08;4.00;;;3.80;;
4808;SDS011;2418;49.930;8.606;2023-08-20T14:15:34;4.50;;;4.20;;
4808;SDS011;2418;49.930;8.606;2023-08-20T14:18:01;3.60;;;3.30;;
4808;SDS011;2418;49.930;8.606;2023-08-20T14:20:27;3.50;;;3.40;;
4808;SDS011;2418;49.930;8.606;2023-08-20T14:22:53;4.07;;;3.58;;
4808;SDS011;2418;49.930;8.606;2023-08-20T14:25:19;4.28;;;3.97;;
4808;SDS011;2418;49.930;8.606;2023-08-20T14:27:45;7.75;;;3.67;;
4808;SDS011;2418;49.930;8.606;2023-08-20T14:30:11;4.50;;;4.10;;
4808;SDS011;2418;49.930;8.606;2023-08-20T14:32:40;4.05;;;3.85;;
4808;SDS011;2418;49.930;8.606;2023-08-20T14:35:07;3.40;;;3.30;;
4808;SDS011;2418;49.930;8.606;2023-08-20T14:37:33;4.10;;;3.80;;
4808;SDS011;2418;49.930;8.606;2023-08-20T14:39:59;3.92;;;3.63;;
4808;SDS011;2418;49.930;8.606;2023-08-20T14:42:25;5.25;;;4.80;;
4808;SDS011;2418;49.930;8.606;2023-08-20T14:44:51;3.40;;;3.10;;
4808;SDS011;2418;49.930;8.606;2023-08-20T14:47:18;3.50;;;3.20;;
4808;SDS011;2418;49.930;8.606;2023-08-20T14:49:44;3.10;;;3.00;;
4808;SDS011;2418;49.930;8.606;2023-08-20T14:52:10;3.38;;;3.08;;
4808;SDS011;2418;49.930;8.606;2023-08-20T14:54:36;3.90;;;3.60;;
4808;SDS011;2418;49.930;8.606;2023-08-20T14:57:02;3.40;;;3.30;;
4808;SDS011;2418;49.930;8.606;2023-08-20T14:59:28;3.42;;;3.20;;
4808;SDS011;2418;49.930;8.606;2023-08-20T15:01:55;2.90;;;2.80;;
4808;SDS011;2418;49.930;8.606;2023-08-20T15:04:21;3.90;;;3.70;;
4808;SDS011;2418;49.930;8.606;2023-08-20T15:06:47;3.03;;;2.92;;
4808;SDS011;2418;49.930;8.606;2023-08-20T15:09:13;3.10;;;2.90;;
4808;SDS011;2418;49.930;8.606;2023-08-20T15:11:43;3.08;;;2.90;;
4808;SDS011;2418;49.930;8.606;2023-08-20T15:14:09;3.70;;;3.40;;
4808;SDS011;2418;49.930;8.606;2023-08-20T15:16:35;3.13;;;2.88;;
4808;SDS011;2418;49.930;8.606;2023-08-20T15:19:01;3.40;;;2.85;;
4808;SDS011;2418;49.930;8.606;2023-08-20T15:21:27;4.00;;;3.10;;
4808;SDS011;2418;49.930;8.606;2023-08-20T15:23:54;5.13;;;2.80;;